首页
METAR-TAF:

METAR-TAF

机场 :

Latrobe, 宾夕法尼亚州, 美国

纬度: 40-17N, 经度: 079-24W, 海拔: 361米

当前天气观测

该预报发布于24分钟前的03:15 UTC
静风
温度 21°C
湿度 106%
气压 1006 hPa
能見度: 11.3公里
天空无云

METAR: KLBE 200315Z AUTO 00000KT 7SM CLR 21/22 A2970 RMK AO2 LTG DSNT NE AND W

时间: 23:39 (03:39 UTC)

预报

该预报发布于4小时和2分钟前的23:37 UTC
预报有效从20日的 00点(UTC)到 20日的 24点(UTC)
风速3节,风向多变
能見度: 10公里
多云层高于6000英尺
附近有阵雨
从 20日的 0700点(UTC)
风速4节,风向南转西南
能見度: 9.7公里
多云层高于2500英尺
轻雾, 附近有阵雨
从 20日的 1200点(UTC)
风速9节,风向西南
能見度: 9.7公里
散云层高于700英尺
多云层高于1500英尺, 积雨云.
小阵雨, 轻雾, 附近有雷暴
从 20日的 1700点(UTC)
风速13节,风向西转西南,有时为21节阵风
能見度: 10公里
多云层高于3000英尺
小阵雨
从 20日的 2000点(UTC)
风速12节,风向西转西南,有时为20节阵风
能見度: 10公里
多云层高于3500英尺, 积雨云.
小阵雨, 附近有雷暴

TAF: KLBE 192337Z 2000/2024 VRB03KT P6SM VCSH BKN060 FM200700 20004KT 6SM BR VCSH BKN025 FM201200 23009KT 6SM -SHRA BR VCTS SCT007 BKN015CB FM201700 24013G21KT P6SM -SHRA BKN030 FM202000 24012G20KT P6SM -SHRA VCTS BKN035CB

超过4000个机场的气象观测和天气预报(METAR&TAF报告)。

可查询的气象台以黄色和红色小点在地图上表示。

将鼠标移到小点上方,可查看气象台名称。

然后点击查看天气观测和预报。

如需切换地图:点击带黑十字的绿色按钮放大地图;点击带横线的绿色按钮缩小地图;或者点击绿色箭头查看邻近地区的地图。


METAR-TAF: